createdAt,value
2022-11-15T00:00:20.493Z,100200.59
2022-11-15T00:03:07.604Z,100195.06
2022-11-15T00:05:54.656Z,100196.81
2022-11-15T00:08:41.480Z,100175.59
2022-11-15T00:11:27.939Z,100189.59
2022-11-15T00:14:14.233Z,100177.06
2022-11-15T00:17:00.581Z,100180.44
2022-11-15T00:19:47.101Z,100180.38
2022-11-15T00:22:34.742Z,100184.56
2022-11-15T00:25:21.205Z,100176.69
2022-11-15T00:28:07.844Z,100173.97
2022-11-15T00:30:54.417Z,100177.44
2022-11-15T00:33:41.166Z,100166.97
2022-11-15T00:36:28.714Z,100175.97
2022-11-15T00:39:15.307Z,100171.53
2022-11-15T00:42:01.735Z,100166.53
2022-11-15T00:44:48.745Z,100171.06
2022-11-15T00:47:35.112Z,100167.66
2022-11-15T00:50:21.358Z,100173.78
2022-11-15T00:53:07.815Z,100160.41
2022-11-15T00:55:54.403Z,100148.06
2022-11-15T00:58:41.462Z,100165.66
2022-11-15T01:01:28.334Z,100139.19
2022-11-15T01:04:15.233Z,100147.97
2022-11-15T01:07:01.816Z,100161.91
2022-11-15T01:09:48.833Z,100142.72
2022-11-15T01:12:36.356Z,100162.78
2022-11-15T01:15:22.797Z,100154.88
2022-11-15T01:18:09.698Z,100131.13
2022-11-15T01:20:56.145Z,100147.44
2022-11-15T01:23:43.940Z,100143.69
2022-11-15T01:26:30.241Z,100140.00
2022-11-15T01:29:16.470Z,100129.75
2022-11-15T01:32:03.338Z,100132.09
2022-11-15T01:34:49.749Z,100140.22
2022-11-15T01:37:36.240Z,100128.75
2022-11-15T01:40:22.926Z,100126.22
2022-11-15T01:43:33.431Z,100130.56
2022-11-15T01:46:42.642Z,100129.72
2022-11-15T01:49:33.481Z,100112.09
2022-11-15T01:52:23.359Z,100115.50
2022-11-15T01:55:18.262Z,100114.56
2022-11-15T01:58:06.611Z,100109.34
2022-11-15T02:00:54.031Z,100102.59
2022-11-15T02:04:14.294Z,100118.31
2022-11-15T02:07:06.383Z,100114.84
2022-11-15T02:09:53.453Z,100112.03
2022-11-15T02:12:40.311Z,100098.59
2022-11-15T02:15:40.359Z,100084.34
2022-11-15T02:18:39.155Z,100080.88
2022-11-15T02:21:47.522Z,100086.00
2022-11-15T02:24:55.392Z,100083.19
2022-11-15T02:27:53.232Z,100075.97
2022-11-15T02:31:07.238Z,100064.31
2022-11-15T02:34:29.512Z,100071.44
2022-11-15T02:37:46.113Z,100049.28
2022-11-15T02:41:14.260Z,100051.91
2022-11-15T02:44:19.882Z,100049.94
2022-11-15T02:47:16.010Z,100041.25
2022-11-15T02:50:11.347Z,100032.34
2022-11-15T02:52:57.945Z,100058.91
2022-11-15T02:55:51.817Z,100033.38
2022-11-15T02:59:18.761Z,100045.56
2022-11-15T03:02:32.837Z,100042.16
2022-11-15T03:05:38.320Z,100037.78
2022-11-15T03:08:34.965Z,100039.66
2022-11-15T03:11:23.964Z,100039.44
2022-11-15T03:14:27.017Z,100033.88
2022-11-15T03:17:48.811Z,100025.16
2022-11-15T03:20:37.112Z,100020.91
2022-11-15T03:23:24.082Z,100018.09
2022-11-15T03:26:15.808Z,100017.88
2022-11-15T03:29:13.640Z,100017.72
2022-11-15T03:32:14.172Z,100016.84
2022-11-15T03:35:13.243Z,100029.81
2022-11-15T03:38:25.497Z,100017.25
2022-11-15T03:41:29.129Z,100009.47
2022-11-15T03:44:41.308Z,100019.78
2022-11-15T03:47:42.695Z,100013.66
2022-11-15T03:50:29.885Z,100001.09
2022-11-15T03:53:17.475Z,99997.34
2022-11-15T03:56:04.178Z,100007.13
2022-11-15T03:58:51.358Z,100012.19
2022-11-15T04:01:37.950Z,100013.19
2022-11-15T04:04:24.482Z,100017.66
2022-11-15T04:07:11.052Z,100003.47
2022-11-15T04:10:04.042Z,100006.13
2022-11-15T04:12:50.353Z,100017.53
2022-11-15T04:15:36.852Z,100013.09
2022-11-15T04:18:23.120Z,100005.09
2022-11-15T04:21:29.694Z,100006.91
2022-11-15T04:24:16.079Z,100007.09
2022-11-15T04:27:03.134Z,100002.03
2022-11-15T04:29:49.682Z,100005.19
2022-11-15T04:32:36.143Z,100004.19
2022-11-15T04:35:22.720Z,99989.03
2022-11-15T04:38:11.272Z,99990.03
2022-11-15T04:40:57.913Z,99997.91
2022-11-15T04:43:44.390Z,100001.66
2022-11-15T04:46:31.340Z,99996.09
2022-11-15T04:49:18.981Z,100003.06
2022-11-15T04:52:05.757Z,99988.81
2022-11-15T04:54:52.667Z,99991.47
2022-11-15T04:57:39.374Z,99996.41
2022-11-15T05:00:26.090Z,99995.47
2022-11-15T05:03:31.280Z,100010.47
2022-11-15T05:06:18.082Z,99997.91
2022-11-15T05:09:04.497Z,99996.97
2022-11-15T05:11:50.880Z,99997.63
2022-11-15T05:14:37.160Z,99987.94
2022-11-15T05:17:23.475Z,99977.88
2022-11-15T05:20:11.093Z,99974.44
2022-11-15T05:22:57.140Z,99983.09
2022-11-15T05:25:44.062Z,99992.03
2022-11-15T05:28:31.173Z,99988.75
2022-11-15T05:31:18.201Z,99987.84
2022-11-15T05:34:07.017Z,99976.25
2022-11-15T05:36:54.441Z,99986.13
2022-11-15T05:39:41.381Z,99963.81
2022-11-15T05:42:29.203Z,99973.50
2022-11-15T05:45:19.310Z,99975.13
2022-11-15T05:48:11.129Z,99975.06
2022-11-15T05:50:58.166Z,99974.22
2022-11-15T05:53:45.276Z,99975.13
2022-11-15T05:56:31.576Z,99978.69
2022-11-15T05:59:19.127Z,99972.94
2022-11-15T06:02:06.012Z,99983.47
2022-11-15T06:04:52.247Z,99980.72
2022-11-15T06:07:39.224Z,99981.66
2022-11-15T06:10:27.706Z,99978.13
2022-11-15T06:13:16.525Z,99989.66
2022-11-15T06:16:03.265Z,99984.56
2022-11-15T06:18:51.111Z,99979.53
2022-11-15T06:21:37.486Z,99983.00
2022-11-15T06:24:24.726Z,99979.63
2022-11-15T06:27:12.670Z,99984.09
2022-11-15T06:29:58.938Z,99982.53
2022-11-15T06:32:46.205Z,99973.88
2022-11-15T06:35:36.171Z,99962.97
2022-11-15T06:38:22.588Z,99950.72
2022-11-15T06:41:11.788Z,99957.69
2022-11-15T06:44:01.072Z,99946.97
2022-11-15T06:46:47.539Z,99948.59
2022-11-15T06:49:33.886Z,99951.25
2022-11-15T06:52:20.607Z,99964.69
2022-11-15T06:55:08.217Z,99980.72
2022-11-15T06:57:55.870Z,99982.84
2022-11-15T07:00:43.444Z,99980.41
2022-11-15T07:03:30.526Z,99983.22
2022-11-15T07:06:16.975Z,99983.22
2022-11-15T07:09:04.509Z,99976.78
2022-11-15T07:11:51.497Z,99981.72
2022-11-15T07:14:38.358Z,99986.06
2022-11-15T07:17:24.826Z,99987.84
2022-11-15T07:20:13.617Z,99995.72
2022-11-15T07:23:05.607Z,99988.81
2022-11-15T07:25:51.834Z,99978.41
2022-11-15T07:28:38.465Z,99983.47
2022-11-15T07:31:24.957Z,99992.25
2022-11-15T07:34:11.523Z,99991.31
2022-11-15T07:36:58.422Z,99991.78
2022-11-15T07:39:45.397Z,99992.31
2022-11-15T07:43:05.476Z,99992.91
2022-11-15T07:45:58.835Z,99976.88
2022-11-15T07:48:46.201Z,99987.16
2022-11-15T07:51:32.896Z,99988.56
2022-11-15T07:54:19.457Z,99997.97
2022-11-15T07:57:07.738Z,99990.78
2022-11-15T07:59:54.855Z,100004.53
2022-11-15T08:02:41.900Z,99994.47
2022-11-15T08:05:28.049Z,99977.50
2022-11-15T08:08:14.159Z,99974.50
2022-11-15T08:11:01.632Z,99981.22
2022-11-15T08:13:47.841Z,99979.16
2022-11-15T08:16:34.607Z,99980.72
2022-11-15T08:19:21.455Z,99974.47
2022-11-15T08:22:08.992Z,99971.34
2022-11-15T08:24:55.416Z,99965.06
2022-11-15T08:27:42.075Z,99965.50
2022-11-15T08:30:29.410Z,99965.16
2022-11-15T08:33:17.232Z,99962.22
2022-11-15T08:36:04.586Z,99964.56
2022-11-15T08:38:51.141Z,99956.38
2022-11-15T08:41:39.099Z,99949.13
2022-11-15T08:44:25.693Z,99945.50
2022-11-15T08:47:15.073Z,99960.09
2022-11-15T08:50:01.757Z,99957.75
2022-11-15T08:52:49.241Z,99947.84
2022-11-15T08:55:41.407Z,99948.59
2022-11-15T08:58:28.219Z,99958.63
2022-11-15T09:01:20.860Z,99959.72
2022-11-15T09:04:07.201Z,99953.19
2022-11-15T09:06:53.731Z,99948.44
2022-11-15T09:09:40.995Z,99943.59
2022-11-15T09:12:27.344Z,99941.59
2022-11-15T09:15:13.840Z,99940.19
2022-11-15T09:18:00.866Z,99938.97
2022-11-15T09:20:48.238Z,99944.84
2022-11-15T09:23:35.119Z,99940.06
2022-11-15T09:26:23.893Z,99951.09
2022-11-15T09:29:10.603Z,99944.66
2022-11-15T09:31:57.121Z,99940.16
2022-11-15T09:34:43.739Z,99940.59
2022-11-15T09:37:33.596Z,99927.28
2022-11-15T09:40:23.953Z,99946.34
2022-11-15T09:43:22.289Z,99929.09
2022-11-15T09:47:10.642Z,99932.63
2022-11-15T09:50:02.602Z,99935.31
2022-11-15T09:52:37.618Z,99927.97
2022-11-15T09:55:09.963Z,99928.66
2022-11-15T09:58:02.582Z,99931.03
2022-11-15T10:00:47.223Z,99925.88
2022-11-15T10:03:21.240Z,99930.25
2022-11-15T10:05:53.650Z,99916.69
2022-11-15T10:08:46.500Z,99927.81
2022-11-15T10:11:42.243Z,99926.84
2022-11-15T10:14:20.857Z,99928.56
2022-11-15T10:17:09.993Z,99929.38
2022-11-15T10:20:13.906Z,99927.13
2022-11-15T10:22:49.462Z,99926.16
2022-11-15T10:25:26.450Z,99918.00
2022-11-15T10:28:27.860Z,99920.50
2022-11-15T10:31:30.120Z,99914.41
2022-11-15T10:34:20.363Z,99917.94
2022-11-15T10:37:00.269Z,99919.41
2022-11-15T10:39:28.613Z,99918.44
2022-11-15T10:41:56.966Z,99913.75
2022-11-15T10:44:40.435Z,99899.97
2022-11-15T10:47:37.843Z,99898.91
2022-11-15T10:50:31.074Z,99889.69
2022-11-15T10:53:03.647Z,99885.22
2022-11-15T10:55:35.178Z,99876.00
2022-11-15T10:58:39.918Z,99881.28
2022-11-15T11:01:24.599Z,99877.53
2022-11-15T11:04:08.563Z,99872.84
2022-11-15T11:06:51.390Z,99860.97
2022-11-15T11:09:36.503Z,99850.97
2022-11-15T11:12:11.209Z,99852.69
2022-11-15T11:14:40.502Z,99841.88
2022-11-15T11:17:33.790Z,99832.31
2022-11-15T11:20:20.526Z,99837.94
2022-11-15T11:23:41.537Z,99835.69
2022-11-15T11:26:32.984Z,99832.81
2022-11-15T11:29:27.074Z,99825.22
2022-11-15T11:32:16.218Z,99826.00
2022-11-15T11:35:14.289Z,99824.16
2022-11-15T11:38:24.942Z,99801.63
2022-11-15T11:41:33.797Z,99790.88
2022-11-15T11:44:24.233Z,99787.47
2022-11-15T11:47:13.158Z,99786.50
2022-11-15T11:49:51.778Z,99784.78
2022-11-15T11:52:42.781Z,99781.97
2022-11-15T11:55:24.301Z,99773.50
2022-11-15T11:58:36.678Z,99776.25
2022-11-15T12:01:13.309Z,99774.66
2022-11-15T12:03:53.269Z,99770.28
2022-11-15T12:06:35.330Z,99770.34
2022-11-15T12:09:39.346Z,99759.72
2022-11-15T12:12:44.761Z,99750.16
2022-11-15T12:15:23.162Z,99741.38
2022-11-15T12:17:51.759Z,99750.81
2022-11-15T12:20:31.780Z,99753.00
2022-11-15T12:23:30.096Z,99746.44
2022-11-15T12:26:19.811Z,99739.16
2022-11-15T12:29:09.092Z,99734.66
2022-11-15T12:31:45.029Z,99731.97
2022-11-15T12:34:21.965Z,99734.22
2022-11-15T12:36:52.429Z,99728.97
2022-11-15T12:39:21.946Z,99726.19
2022-11-15T12:41:56.145Z,99714.47
2022-11-15T12:44:33.272Z,99718.91
2022-11-15T12:47:02.836Z,99706.53
2022-11-15T12:49:30.463Z,99712.66
2022-11-15T12:51:58.970Z,99704.19
2022-11-15T12:54:31.832Z,99702.06
2022-11-15T12:57:08.379Z,99702.47
2022-11-15T13:00:03.780Z,99704.03
2022-11-15T13:02:36.939Z,99687.78
2022-11-15T13:05:17.189Z,99680.19
2022-11-15T13:07:47.619Z,99687.28
2022-11-15T13:10:18.022Z,99674.47
2022-11-15T13:12:46.413Z,99668.91
2022-11-15T13:15:14.448Z,99677.34
2022-11-15T13:17:54.453Z,99665.44
2022-11-15T13:20:32.619Z,99652.66
2022-11-15T13:23:11.252Z,99651.47
2022-11-15T13:26:17.690Z,99646.22
2022-11-15T13:28:56.080Z,99636.34
2022-11-15T13:31:41.638Z,99629.22
2022-11-15T13:34:53.149Z,99632.56
2022-11-15T13:37:21.283Z,99632.69
2022-11-15T13:39:50.982Z,99619.00
2022-11-15T13:42:22.342Z,99620.50
2022-11-15T13:45:01.718Z,99611.13
2022-11-15T13:47:32.826Z,99613.94
2022-11-15T13:50:09.642Z,99615.56
2022-11-15T13:52:44.225Z,99609.22
2022-11-15T13:55:19.980Z,99599.53
2022-11-15T13:58:07.500Z,99601.78
2022-11-15T14:00:39.701Z,99595.66
2022-11-15T14:03:29.047Z,99582.00
2022-11-15T14:06:18.788Z,99589.09
2022-11-15T14:09:01.728Z,99584.44
2022-11-15T14:11:29.847Z,99577.50
2022-11-15T14:14:10.141Z,99578.00
2022-11-15T14:16:46.496Z,99570.06
2022-11-15T14:19:36.460Z,99551.81
2022-11-15T14:22:12.000Z,99563.09
2022-11-15T14:24:40.648Z,99543.75
2022-11-15T14:27:27.887Z,99542.91
2022-11-15T14:29:59.417Z,99526.50
2022-11-15T14:32:38.052Z,99524.66
2022-11-15T14:35:23.991Z,99520.06
2022-11-15T14:37:52.831Z,99509.78
2022-11-15T14:40:23.272Z,99490.09
2022-11-15T14:42:51.373Z,99507.69
2022-11-15T14:45:23.104Z,99507.47
2022-11-15T14:47:51.480Z,99499.97
2022-11-15T14:50:22.632Z,99508.66
2022-11-15T14:52:50.892Z,99511.47
2022-11-15T14:55:27.991Z,99509.53
2022-11-15T14:57:57.304Z,99497.53
2022-11-15T15:00:27.843Z,99501.94
2022-11-15T15:03:00.014Z,99493.16
2022-11-15T15:05:36.606Z,99492.16
2022-11-15T15:08:06.462Z,99499.59
2022-11-15T15:10:41.623Z,99493.25
2022-11-15T15:13:26.218Z,99477.88
2022-11-15T15:15:56.273Z,99470.06
2022-11-15T15:18:24.703Z,99476.16
2022-11-15T15:21:01.293Z,99475.19
2022-11-15T15:23:32.113Z,99463.69
2022-11-15T15:26:03.845Z,99464.56
2022-11-15T15:28:34.761Z,99457.59
2022-11-15T15:31:04.019Z,99449.75
2022-11-15T15:33:34.248Z,99448.78
2022-11-15T15:36:03.039Z,99432.16
2022-11-15T15:38:33.425Z,99438.91
2022-11-15T15:41:04.855Z,99424.56
2022-11-15T15:43:35.259Z,99437.44
2022-11-15T15:46:03.412Z,99436.59
2022-11-15T15:48:32.138Z,99430.47
2022-11-15T15:51:00.357Z,99438.38
2022-11-15T15:53:30.944Z,99430.47
2022-11-15T15:56:00.023Z,99434.84
2022-11-15T15:58:28.553Z,99429.38
2022-11-15T16:00:56.933Z,99427.66
2022-11-15T16:03:25.253Z,99421.31
2022-11-15T16:05:53.961Z,99423.25
2022-11-15T16:08:25.526Z,99414.13
2022-11-15T16:10:53.886Z,99414.66
2022-11-15T16:13:22.021Z,99403.31
2022-11-15T16:15:55.156Z,99400.91
2022-11-15T16:18:23.556Z,99388.59
2022-11-15T16:20:53.275Z,99383.09
2022-11-15T16:23:22.916Z,99388.34
2022-11-15T16:25:56.693Z,99377.75
2022-11-15T16:28:30.224Z,99380.28
2022-11-15T16:31:20.905Z,99362.31
2022-11-15T16:33:49.602Z,99362.31
2022-11-15T16:36:30.668Z,99377.09
2022-11-15T16:39:05.562Z,99365.63
2022-11-15T16:41:34.202Z,99369.31
2022-11-15T16:44:02.540Z,99356.09
2022-11-15T16:46:31.207Z,99360.28
2022-11-15T16:48:59.582Z,99346.22
2022-11-15T16:51:28.013Z,99358.56
2022-11-15T16:53:56.271Z,99353.78
2022-11-15T16:56:31.557Z,99349.53
2022-11-15T16:59:01.776Z,99343.41
2022-11-15T17:01:35.399Z,99350.03
2022-11-15T17:04:14.565Z,99350.75
2022-11-15T17:06:46.685Z,99343.06
2022-11-15T17:09:24.794Z,99338.78
2022-11-15T17:11:54.172Z,99331.09
2022-11-15T17:14:23.057Z,99326.56
2022-11-15T17:16:51.834Z,99331.31
2022-11-15T17:19:21.799Z,99330.09
2022-11-15T17:21:50.587Z,99326.78
2022-11-15T17:24:21.313Z,99334.41
2022-11-15T17:26:49.505Z,99325.72
2022-11-15T17:29:18.646Z,99331.72
2022-11-15T17:31:47.010Z,99326.56
2022-11-15T17:34:15.203Z,99332.56
2022-11-15T17:36:43.480Z,99329.97
2022-11-15T17:39:11.904Z,99334.16
2022-11-15T17:41:40.163Z,99327.94
2022-11-15T17:44:08.501Z,99322.56
2022-11-15T17:46:38.015Z,99318.16
2022-11-15T17:49:07.152Z,99330.59
2022-11-15T17:51:37.311Z,99318.00
2022-11-15T17:54:06.751Z,99314.47
2022-11-15T17:56:40.959Z,99326.34
2022-11-15T17:59:14.824Z,99308.00
2022-11-15T18:01:44.477Z,99306.16
2022-11-15T18:04:15.086Z,99316.47
2022-11-15T18:06:43.229Z,99314.72
2022-11-15T18:09:12.490Z,99310.97
2022-11-15T18:11:43.275Z,99314.38
2022-11-15T18:14:15.555Z,99305.47
2022-11-15T18:16:44.257Z,99306.44
2022-11-15T18:19:15.850Z,99303.03
2022-11-15T18:21:59.290Z,99307.44
2022-11-15T18:24:31.254Z,99310.25
2022-11-15T18:27:01.815Z,99300.44
2022-11-15T18:29:31.046Z,99306.94
2022-11-15T18:31:59.628Z,99295.44
2022-11-15T18:34:32.505Z,99280.97
2022-11-15T18:37:03.265Z,99295.69
2022-11-15T18:39:31.867Z,99288.63
2022-11-15T18:42:00.142Z,99298.59
2022-11-15T18:44:31.918Z,99287.97
2022-11-15T18:47:00.657Z,99290.00
2022-11-15T18:49:29.246Z,99290.13
2022-11-15T18:51:57.689Z,99288.19
2022-11-15T18:57:14.744Z,99291.09
2022-11-15T18:59:43.180Z,99293.66
2022-11-15T19:02:13.207Z,99293.44
2022-11-15T19:04:41.465Z,99276.47
2022-11-15T19:07:10.522Z,99283.56
2022-11-15T19:09:39.017Z,99276.47
2022-11-15T19:12:07.598Z,99280.78
2022-11-15T19:14:42.805Z,99267.47
2022-11-15T19:17:11.290Z,99268.34
2022-11-15T19:19:39.789Z,99271.22
2022-11-15T19:22:08.009Z,99278.19
2022-11-15T19:24:36.322Z,99267.81
2022-11-15T19:27:04.530Z,99278.28
2022-11-15T19:29:33.803Z,99270.38
2022-11-15T19:32:03.544Z,99270.38
2022-11-15T19:34:31.740Z,99271.34
2022-11-15T19:37:00.796Z,99279.06
2022-11-15T19:39:29.808Z,99267.69
2022-11-15T19:41:58.152Z,99280.47
2022-11-15T19:44:27.582Z,99282.56
2022-11-15T19:46:55.968Z,99258.97
2022-11-15T19:49:28.721Z,99257.50
2022-11-15T19:51:58.169Z,99254.72
2022-11-15T19:54:26.751Z,99257.75
2022-11-15T19:56:55.507Z,99259.66
2022-11-15T19:59:24.486Z,99257.13
2022-11-15T20:01:52.862Z,99242.84
2022-11-15T20:04:22.840Z,99232.84
2022-11-15T20:06:51.894Z,99232.50
2022-11-15T20:09:21.091Z,99222.75
2022-11-15T20:11:49.632Z,99231.41
2022-11-15T20:14:18.000Z,99235.03
2022-11-15T20:16:50.105Z,99229.69
2022-11-15T20:19:22.648Z,99225.28
2022-11-15T20:21:50.812Z,99226.41
2022-11-15T20:24:18.953Z,99236.16
2022-11-15T20:26:47.293Z,99221.88
2022-11-15T20:29:15.604Z,99229.19
2022-11-15T20:31:44.324Z,99231.00
2022-11-15T20:34:13.307Z,99230.16
2022-11-15T20:36:41.525Z,99212.69
2022-11-15T20:39:10.317Z,99217.00
2022-11-15T20:41:39.106Z,99203.81
2022-11-15T20:44:07.482Z,99209.03
2022-11-15T20:46:35.982Z,99213.34
2022-11-15T20:49:04.303Z,99206.38
2022-11-15T20:51:32.734Z,99217.34
2022-11-15T20:54:02.162Z,99212.53
2022-11-15T20:56:30.652Z,99188.38
2022-11-15T20:58:59.056Z,99198.75
2022-11-15T21:01:27.806Z,99202.28
2022-11-15T21:03:57.010Z,99197.78
2022-11-15T21:06:26.929Z,99182.25
2022-11-15T21:09:14.590Z,99192.97
2022-11-15T21:12:01.346Z,99188.59
2022-11-15T21:14:30.865Z,99187.13
2022-11-15T21:16:59.683Z,99198.34
2022-11-15T21:19:34.036Z,99193.09
2022-11-15T21:22:06.627Z,99195.44
2022-11-15T21:24:34.804Z,99178.84
2022-11-15T21:27:03.397Z,99195.31
2022-11-15T21:29:38.044Z,99189.09
2022-11-15T21:32:10.074Z,99173.38
2022-11-15T21:34:38.596Z,99183.66
2022-11-15T21:37:07.343Z,99189.00
2022-11-15T21:39:35.673Z,99181.41
2022-11-15T21:42:04.238Z,99179.34
2022-11-15T21:44:32.578Z,99183.00
2022-11-15T21:47:00.710Z,99181.06
2022-11-15T21:49:29.192Z,99184.00
2022-11-15T21:51:57.442Z,99183.09
2022-11-15T21:54:25.677Z,99175.66
2022-11-15T21:56:53.697Z,99177.25
2022-11-15T21:59:21.601Z,99171.88
2022-11-15T22:02:08.065Z,99163.84
2022-11-15T22:04:36.182Z,99156.03
2022-11-15T22:07:04.117Z,99162.13
2022-11-15T22:09:32.018Z,99171.88
2022-11-15T22:12:00.460Z,99149.06
2022-11-15T22:14:28.285Z,99157.97
2022-11-15T22:16:56.371Z,99158.59
2022-11-15T22:19:29.000Z,99163.97
2022-11-15T22:21:56.953Z,99160.56
2022-11-15T22:24:25.700Z,99164.31
2022-11-15T22:27:13.363Z,99165.63
2022-11-15T22:29:41.215Z,99150.13
2022-11-15T22:32:09.163Z,99154.00
2022-11-15T22:34:36.974Z,99162.56
2022-11-15T22:37:20.089Z,99142.66
2022-11-15T22:39:49.683Z,99156.56
2022-11-15T22:42:23.225Z,99162.78
2022-11-15T22:44:51.984Z,99152.19
2022-11-15T22:47:20.102Z,99136.44
2022-11-15T22:49:48.047Z,99150.22
2022-11-15T22:52:15.827Z,99146.69
2022-11-15T22:54:43.903Z,99137.31
2022-11-15T22:57:11.820Z,99135.34
2022-11-15T22:59:41.060Z,99137.94
2022-11-15T23:02:08.783Z,99146.81
2022-11-15T23:04:37.553Z,99144.16
2022-11-15T23:07:05.472Z,99148.75
2022-11-15T23:09:33.715Z,99144.25
2022-11-15T23:12:20.593Z,99152.91
2022-11-15T23:14:48.499Z,99144.88
2022-11-15T23:17:16.416Z,99140.50
2022-11-15T23:19:44.220Z,99148.41
2022-11-15T23:22:30.847Z,99136.19
2022-11-15T23:24:59.553Z,99124.38
2022-11-15T23:27:27.378Z,99134.50
2022-11-15T23:30:14.407Z,99137.31
2022-11-15T23:33:00.910Z,99136.66
2022-11-15T23:35:28.945Z,99127.13
2022-11-15T23:37:56.810Z,99132.59
2022-11-15T23:40:24.953Z,99130.03
2022-11-15T23:42:53.073Z,99123.31
2022-11-15T23:45:21.144Z,99130.38
2022-11-15T23:47:49.219Z,99136.72
2022-11-15T23:50:17.816Z,99134.13
2022-11-15T23:52:46.173Z,99132.66
2022-11-15T23:55:14.307Z,99130.00
2022-11-15T23:57:42.491Z,99132.75
